Time;durP1;ratioP1;P1;durP2;ratioP2;P2;SDS_P1;SDS_P2;PMS_P1;PMS_P2;Temp;Humidity;BMP_temperature;BMP_pressure;BME280_temperature;BME280_humidity;BME280_pressure;Samples;Min_cycle;Max_cycle;Signal;HPM_P1;HPM_P2
2022/05/25 00:01:08;;;;;;;1.23;1.20;;;;;;;;;;5093600;28;20279;-59
2022/05/25 00:03:55;;;;;;;1.20;1.20;;;;;;;;;;5094752;28;20224;-58
2022/05/25 00:06:42;;;;;;;1.00;1.00;;;;;;;;;;5093730;28;20292;-58
2022/05/25 00:09:28;;;;;;;1.23;1.23;;;;;;;;;;5097492;28;20347;-59
2022/05/25 00:12:17;;;;;;;1.30;1.20;;;;;;;;;;5092690;28;20243;-58
2022/05/25 00:15:07;;;;;;;1.00;1.00;;;;;;;;;;5095613;28;20222;-58
2022/05/25 00:17:54;;;;;;;1.10;1.10;;;;;;;;;;5096764;28;20297;-58
2022/05/25 00:20:41;;;;;;;0.90;0.90;;;;;;;;;;5087412;28;20212;-59
2022/05/25 00:23:28;;;;;;;2.40;1.30;;;;;;;;;;5096086;28;20316;-59
2022/05/25 00:26:15;;;;;;;1.23;1.17;;;;;;;;;;5084837;28;20835;-58
2022/05/25 00:29:04;;;;;;;1.07;1.07;;;;;;;;;;5089361;28;20621;-59
2022/05/25 00:31:51;;;;;;;1.37;1.27;;;;;;;;;;5096725;28;20204;-59
2022/05/25 00:34:38;;;;;;;0.90;0.90;;;;;;;;;;5094687;28;20282;-58
2022/05/25 00:37:25;;;;;;;1.20;1.10;;;;;;;;;;5093796;28;20264;-58
2022/05/25 00:40:15;;;;;;;1.20;1.17;;;;;;;;;;5095446;28;20613;-59
2022/05/25 00:43:02;;;;;;;1.13;1.13;;;;;;;;;;5094093;28;20688;-59
2022/05/25 00:45:54;;;;;;;1.43;1.20;;;;;;;;;;5096209;28;20442;-58
2022/05/25 00:48:45;;;;;;;0.87;0.87;;;;;;;;;;5095590;28;20735;-58
2022/05/25 00:51:39;;;;;;;1.10;1.00;;;;;;;;;;5095557;28;20615;-58
2022/05/25 00:54:30;;;;;;;1.20;1.10;;;;;;;;;;5094738;28;20245;-59
2022/05/25 00:57:21;;;;;;;1.17;1.10;;;;;;;;;;5093704;28;20234;-59
2022/05/25 01:00:11;;;;;;;1.20;1.10;;;;;;;;;;5093720;28;20582;-58
2022/05/25 01:03:04;;;;;;;1.10;1.10;;;;;;;;;;5094362;28;20227;-63
2022/05/25 01:06:00;;;;;;;1.30;1.20;;;;;;;;;;5097712;28;20786;-63
2022/05/25 01:08:58;;;;;;;1.13;1.07;;;;;;;;;;5098098;28;20331;-63
2022/05/25 01:11:58;;;;;;;0.93;0.93;;;;;;;;;;5101366;28;20293;-63
2022/05/25 01:14:59;;;;;;;1.53;1.17;;;;;;;;;;5101490;28;20230;-63
2022/05/25 01:17:58;;;;;;;1.03;1.00;;;;;;;;;;5099779;28;20293;-63
2022/05/25 01:20:49;;;;;;;2.03;1.30;;;;;;;;;;5100545;28;20211;-63
2022/05/25 01:23:57;;;;;;;1.17;1.00;;;;;;;;;;5100868;28;20269;-63
2022/05/25 01:27:24;;;;;;;1.37;1.27;;;;;;;;;;5092251;28;20308;-63
2022/05/25 01:30:19;;;;;;;1.13;1.13;;;;;;;;;;5092368;28;20285;-63
2022/05/25 01:33:13;;;;;;;1.13;1.07;;;;;;;;;;5096181;28;20210;-63
2022/05/25 01:36:06;;;;;;;2.23;1.10;;;;;;;;;;5098225;28;20258;-63
2022/05/25 01:38:59;;;;;;;1.00;1.00;;;;;;;;;;5097932;28;20290;-63
2022/05/25 01:41:53;;;;;;;1.67;1.20;;;;;;;;;;5091731;28;20223;-63
2022/05/25 01:44:44;;;;;;;0.90;0.90;;;;;;;;;;5099540;28;20258;-63
2022/05/25 01:47:36;;;;;;;1.10;1.10;;;;;;;;;;5100065;28;20620;-63
2022/05/25 01:50:26;;;;;;;1.23;1.10;;;;;;;;;;5099650;28;20210;-62
2022/05/25 01:53:15;;;;;;;0.93;0.93;;;;;;;;;;5101621;28;20395;-63
2022/05/25 01:56:10;;;;;;;1.00;1.00;;;;;;;;;;5096158;28;20212;-62
2022/05/25 01:59:00;;;;;;;0.80;0.80;;;;;;;;;;5097602;28;20682;-62
2022/05/25 02:04:19;;;;;;;0.80;0.80;;;;;;;;;;5096687;28;20286;-63
2022/05/25 02:05:01;;;;;;;0.87;0.87;;;;;;;;;;5097454;28;20218;-63
2022/05/25 02:08:07;;;;;;;0.80;0.80;;;;;;;;;;5099909;28;20307;-63
2022/05/25 02:11:03;;;;;;;0.90;0.80;;;;;;;;;;5091083;28;20298;-63
2022/05/25 02:13:57;;;;;;;1.50;0.97;;;;;;;;;;5098269;28;20283;-62
2022/05/25 02:17:01;;;;;;;1.17;0.80;;;;;;;;;;5093211;28;20671;-63
2022/05/25 02:19:57;;;;;;;0.97;0.93;;;;;;;;;;5097288;28;20736;-63
2022/05/25 02:22:49;;;;;;;1.40;0.90;;;;;;;;;;5096385;28;20238;-63
2022/05/25 02:25:42;;;;;;;1.27;0.80;;;;;;;;;;5098919;28;20763;-63
2022/05/25 02:28:33;;;;;;;1.03;0.80;;;;;;;;;;5097901;28;20241;-63
2022/05/25 02:31:25;;;;;;;0.80;0.80;;;;;;;;;;5097657;28;20340;-63
2022/05/25 02:34:16;;;;;;;0.80;0.80;;;;;;;;;;5096940;28;20227;-63
2022/05/25 02:37:04;;;;;;;1.17;1.03;;;;;;;;;;5097445;28;20219;-63
2022/05/25 02:39:54;;;;;;;1.30;1.20;;;;;;;;;;5100013;28;20216;-63
2022/05/25 02:42:42;;;;;;;0.90;0.90;;;;;;;;;;5099790;28;20730;-63
2022/05/25 02:45:29;;;;;;;0.97;0.97;;;;;;;;;;5101352;28;20243;-63
2022/05/25 02:48:16;;;;;;;1.73;0.90;;;;;;;;;;5092395;28;20272;-63
2022/05/25 02:51:03;;;;;;;1.10;1.00;;;;;;;;;;5098385;28;20666;-62
2022/05/25 02:53:50;;;;;;;2.93;0.73;;;;;;;;;;5097758;28;20829;-63
2022/05/25 02:56:39;;;;;;;1.63;1.00;;;;;;;;;;5096337;28;20241;-63
2022/05/25 02:59:26;;;;;;;1.00;0.90;;;;;;;;;;5099157;28;20218;-63
2022/05/25 03:02:12;;;;;;;0.80;0.80;;;;;;;;;;5095163;28;20355;-63
2022/05/25 03:04:59;;;;;;;1.60;0.87;;;;;;;;;;5091296;28;20223;-64
2022/05/25 03:07:46;;;;;;;0.83;0.80;;;;;;;;;;5094978;28;20336;-60
2022/05/25 03:10:33;;;;;;;0.90;0.80;;;;;;;;;;5095111;28;20206;-63
2022/05/25 03:13:22;;;;;;;0.80;0.80;;;;;;;;;;5092686;28;20216;-63
2022/05/25 03:16:12;;;;;;;1.73;1.07;;;;;;;;;;5097670;28;20211;-63
2022/05/25 03:18:59;;;;;;;0.93;0.70;;;;;;;;;;5092553;28;20203;-63
2022/05/25 03:21:46;;;;;;;1.67;0.60;;;;;;;;;;5094333;28;20222;-63
2022/05/25 03:24:33;;;;;;;1.07;0.80;;;;;;;;;;5096261;28;20310;-63
2022/05/25 03:27:21;;;;;;;2.20;1.10;;;;;;;;;;5094302;28;20297;-63
2022/05/25 03:30:10;;;;;;;0.90;0.90;;;;;;;;;;5095432;28;20221;-63
2022/05/25 03:32:57;;;;;;;0.83;0.77;;;;;;;;;;5095374;28;20283;-63
2022/05/25 03:35:44;;;;;;;0.80;0.80;;;;;;;;;;5095955;28;20281;-62
2022/05/25 03:38:31;;;;;;;0.70;0.60;;;;;;;;;;5098660;28;20293;-63
2022/05/25 03:41:18;;;;;;;1.47;1.17;;;;;;;;;;5095143;28;20218;-64
2022/05/25 03:44:06;;;;;;;0.83;0.70;;;;;;;;;;5093253;28;20302;-63
2022/05/25 03:46:54;;;;;;;2.40;0.70;;;;;;;;;;5090796;28;20258;-63
2022/05/25 03:49:41;;;;;;;1.30;0.97;;;;;;;;;;5088606;28;20279;-63
2022/05/25 03:52:29;;;;;;;1.27;0.67;;;;;;;;;;5098844;28;20250;-63
2022/05/25 03:55:16;;;;;;;0.90;0.90;;;;;;;;;;5095280;28;20208;-63
2022/05/25 03:58:04;;;;;;;1.10;1.00;;;;;;;;;;5098222;28;20280;-62
2022/05/25 04:00:51;;;;;;;1.27;0.80;;;;;;;;;;5094206;28;20248;-63
2022/05/25 04:03:39;;;;;;;1.00;0.90;;;;;;;;;;5097391;28;20203;-63
2022/05/25 04:06:26;;;;;;;1.80;0.90;;;;;;;;;;5096271;28;20233;-63
2022/05/25 04:09:13;;;;;;;1.10;0.90;;;;;;;;;;5096411;28;20963;-63
2022/05/25 04:12:00;;;;;;;0.90;0.90;;;;;;;;;;5097679;28;20218;-68
2022/05/25 04:14:47;;;;;;;0.73;0.60;;;;;;;;;;5095655;28;20268;-63
2022/05/25 04:17:35;;;;;;;0.87;0.70;;;;;;;;;;5094614;28;20334;-63
2022/05/25 04:20:24;;;;;;;1.00;0.70;;;;;;;;;;5094359;28;20261;-64
2022/05/25 04:23:11;;;;;;;0.97;0.80;;;;;;;;;;5095779;28;20231;-63
2022/05/25 04:25:59;;;;;;;1.60;0.90;;;;;;;;;;5098953;28;20771;-62
2022/05/25 04:28:46;;;;;;;1.10;0.73;;;;;;;;;;5097907;28;20212;-62
2022/05/25 04:31:33;;;;;;;1.40;0.87;;;;;;;;;;5092695;28;20951;-65
2022/05/25 04:34:19;;;;;;;1.00;0.90;;;;;;;;;;5099492;28;20207;-62
2022/05/25 04:40:13;;;;;;;2.50;0.90;;;;;;;;;;5097774;28;20574;-63
2022/05/25 04:43:04;;;;;;;1.10;0.70;;;;;;;;;;5096414;28;20287;-63
2022/05/25 04:45:54;;;;;;;1.47;0.90;;;;;;;;;;5099896;28;20632;-63
2022/05/25 04:48:41;;;;;;;1.10;0.60;;;;;;;;;;5099171;28;20204;-63
2022/05/25 04:51:28;;;;;;;0.80;0.80;;;;;;;;;;5095680;28;20304;-63
2022/05/25 04:54:16;;;;;;;0.60;0.60;;;;;;;;;;5097709;28;20675;-63
2022/05/25 04:57:23;;;;;;;1.37;0.90;;;;;;;;;;5099615;28;20299;-63
2022/05/25 05:00:10;;;;;;;1.13;0.73;;;;;;;;;;5098282;28;20215;-63
2022/05/25 05:02:57;;;;;;;0.90;0.80;;;;;;;;;;5099374;28;20633;-63
2022/05/25 05:05:44;;;;;;;0.67;0.63;;;;;;;;;;5098002;28;20310;-62
2022/05/25 05:08:31;;;;;;;0.97;0.80;;;;;;;;;;5099133;28;20246;-63
2022/05/25 05:11:21;;;;;;;0.93;0.77;;;;;;;;;;5099771;28;20731;-63
2022/05/25 05:14:07;;;;;;;1.47;0.80;;;;;;;;;;5100131;28;20215;-63
2022/05/25 05:16:56;;;;;;;0.70;0.60;;;;;;;;;;5101360;28;20677;-63
2022/05/25 05:19:43;;;;;;;0.80;0.80;;;;;;;;;;5096026;28;20584;-63
2022/05/25 05:22:30;;;;;;;0.97;0.57;;;;;;;;;;5096112;28;20217;-63
2022/05/25 05:25:17;;;;;;;0.87;0.70;;;;;;;;;;5093166;28;20229;-63
2022/05/25 05:28:09;;;;;;;0.60;0.60;;;;;;;;;;5097065;28;20683;-62
2022/05/25 05:30:58;;;;;;;1.20;0.80;;;;;;;;;;5098781;28;20241;-63
2022/05/25 05:33:45;;;;;;;0.90;0.90;;;;;;;;;;5100132;28;20292;-63
2022/05/25 05:36:37;;;;;;;1.60;0.70;;;;;;;;;;5103291;28;20240;-63
2022/05/25 05:39:28;;;;;;;0.87;0.63;;;;;;;;;;5095509;28;20312;-62
2022/05/25 05:42:18;;;;;;;0.60;0.60;;;;;;;;;;5102784;28;20210;-63
2022/05/25 05:45:12;;;;;;;0.60;0.60;;;;;;;;;;5101535;28;20229;-63
2022/05/25 05:48:05;;;;;;;0.90;0.60;;;;;;;;;;5098913;28;20847;-63
2022/05/25 05:50:55;;;;;;;0.83;0.53;;;;;;;;;;5096627;28;20749;-62
2022/05/25 05:53:44;;;;;;;0.77;0.70;;;;;;;;;;5100423;28;20218;-63
2022/05/25 05:56:32;;;;;;;0.60;0.60;;;;;;;;;;5096156;28;20203;-63
2022/05/25 05:59:19;;;;;;;1.03;0.70;;;;;;;;;;5097681;28;20657;-63
2022/05/25 06:02:08;;;;;;;2.23;0.90;;;;;;;;;;5098524;28;20684;-63
2022/05/25 06:04:55;;;;;;;0.50;0.50;;;;;;;;;;5099450;28;20641;-63
2022/05/25 06:07:42;;;;;;;0.70;0.63;;;;;;;;;;5095654;28;20257;-63
2022/05/25 06:10:29;;;;;;;1.00;0.57;;;;;;;;;;5095718;28;21016;-63
2022/05/25 06:13:16;;;;;;;0.70;0.63;;;;;;;;;;5102139;28;20286;-63
2022/05/25 06:19:27;;;;;;;0.53;0.53;;;;;;;;;;5101296;28;20210;-63
2022/05/25 06:22:18;;;;;;;0.80;0.57;;;;;;;;;;5098524;28;20204;-63
2022/05/25 06:25:07;;;;;;;0.60;0.47;;;;;;;;;;5097466;28;20247;-63
2022/05/25 06:27:54;;;;;;;0.77;0.63;;;;;;;;;;5096927;28;20210;-60
2022/05/25 06:30:41;;;;;;;0.60;0.60;;;;;;;;;;5096300;28;20250;-61
2022/05/25 06:33:28;;;;;;;0.53;0.40;;;;;;;;;;5096096;28;20248;-63
2022/05/25 06:36:18;;;;;;;0.60;0.50;;;;;;;;;;5095911;28;20250;-61
2022/05/25 06:39:05;;;;;;;0.90;0.67;;;;;;;;;;5100364;28;20197;-64
2022/05/25 06:41:52;;;;;;;1.27;0.57;;;;;;;;;;5101846;28;20254;-62
2022/05/25 06:44:41;;;;;;;0.40;0.40;;;;;;;;;;5101109;28;20720;-62
2022/05/25 06:47:30;;;;;;;0.60;0.40;;;;;;;;;;5097821;28;20614;-62
2022/05/25 06:50:18;;;;;;;0.77;0.33;;;;;;;;;;5098662;28;20291;-61
2022/05/25 06:53:06;;;;;;;0.60;0.60;;;;;;;;;;5094403;28;20714;-61
2022/05/25 06:55:53;;;;;;;0.50;0.50;;;;;;;;;;5091775;28;20623;-62
2022/05/25 06:58:40;;;;;;;0.40;0.40;;;;;;;;;;5095678;28;20289;-62
2022/05/25 07:01:28;;;;;;;0.37;0.30;;;;;;;;;;5097626;28;20283;-61
2022/05/25 07:04:14;;;;;;;0.47;0.40;;;;;;;;;;5093311;28;20686;-62
2022/05/25 07:07:02;;;;;;;1.80;0.47;;;;;;;;;;5097224;28;20263;-62
2022/05/25 07:09:51;;;;;;;0.50;0.50;;;;;;;;;;5096271;28;20281;-63
2022/05/25 07:12:38;;;;;;;0.30;0.30;;;;;;;;;;5101094;28;20551;-62
2022/05/25 07:15:26;;;;;;;0.70;0.40;;;;;;;;;;5091908;28;20196;-62
2022/05/25 07:18:13;;;;;;;0.60;0.47;;;;;;;;;;5095399;28;20288;-62
2022/05/25 07:21:01;;;;;;;0.30;0.30;;;;;;;;;;5103354;28;20197;-60
2022/05/25 07:23:50;;;;;;;0.40;0.40;;;;;;;;;;5088197;28;20663;-61
2022/05/25 07:26:38;;;;;;;0.63;0.63;;;;;;;;;;5104512;28;20714;-61
2022/05/25 07:29:25;;;;;;;0.30;0.30;;;;;;;;;;5100648;28;20669;-62
2022/05/25 07:32:13;;;;;;;0.30;0.30;;;;;;;;;;5102880;28;20217;-61
2022/05/25 07:35:02;;;;;;;0.70;0.40;;;;;;;;;;5099214;28;20208;-60
2022/05/25 07:37:52;;;;;;;0.30;0.30;;;;;;;;;;5098237;28;20215;-61
2022/05/25 07:40:42;;;;;;;0.50;0.50;;;;;;;;;;5099262;28;20208;-62
2022/05/25 07:43:33;;;;;;;0.50;0.50;;;;;;;;;;5095342;28;20697;-62
2022/05/25 07:46:21;;;;;;;0.53;0.30;;;;;;;;;;5094806;28;20286;-61
2022/05/25 07:49:08;;;;;;;0.83;0.30;;;;;;;;;;5093155;28;20202;-61
2022/05/25 07:51:55;;;;;;;0.50;0.40;;;;;;;;;;5090251;28;20337;-61
2022/05/25 07:54:43;;;;;;;0.50;0.50;;;;;;;;;;5096530;28;20223;-61
2022/05/25 07:57:30;;;;;;;0.37;0.37;;;;;;;;;;5100505;28;20288;-61
2022/05/25 08:00:21;;;;;;;0.50;0.40;;;;;;;;;;5093639;28;20240;-61
2022/05/25 08:06:13;;;;;;;0.40;0.40;;;;;;;;;;5098696;28;20308;-62
2022/05/25 08:09:00;;;;;;;0.60;0.60;;;;;;;;;;5096630;28;20278;-62
2022/05/25 08:11:47;;;;;;;2.07;0.53;;;;;;;;;;5100057;28;20242;-62
2022/05/25 08:14:34;;;;;;;0.50;0.37;;;;;;;;;;5094647;28;20599;-66
2022/05/25 08:17:22;;;;;;;0.63;0.63;;;;;;;;;;5097145;28;20225;-62
2022/05/25 08:20:11;;;;;;;0.50;0.50;;;;;;;;;;5096448;28;20209;-61
2022/05/25 08:22:58;;;;;;;0.40;0.30;;;;;;;;;;5095535;28;20213;-61
2022/05/25 08:25:46;;;;;;;0.50;0.50;;;;;;;;;;5091725;28;20285;-62
2022/05/25 08:28:33;;;;;;;1.33;0.50;;;;;;;;;;5093606;28;20287;-62
2022/05/25 08:31:20;;;;;;;0.30;0.30;;;;;;;;;;5105659;28;20211;-62
2022/05/25 08:34:09;;;;;;;1.37;0.43;;;;;;;;;;5094269;28;20214;-61
2022/05/25 08:36:56;;;;;;;0.47;0.47;;;;;;;;;;5096018;28;20277;-62
2022/05/25 08:39:43;;;;;;;0.50;0.50;;;;;;;;;;5096155;28;20692;-62
2022/05/25 08:42:33;;;;;;;0.40;0.40;;;;;;;;;;5095191;28;20655;-62
2022/05/25 08:45:21;;;;;;;1.17;0.40;;;;;;;;;;5097207;28;20594;-61
2022/05/25 08:48:10;;;;;;;1.50;0.50;;;;;;;;;;5098018;28;21010;-62
2022/05/25 08:51:02;;;;;;;0.70;0.40;;;;;;;;;;5093110;28;20297;-61
2022/05/25 08:53:50;;;;;;;0.40;0.40;;;;;;;;;;5099747;28;20225;-61
2022/05/25 08:56:40;;;;;;;0.40;0.40;;;;;;;;;;5097324;28;20340;-62
2022/05/25 08:59:31;;;;;;;0.30;0.30;;;;;;;;;;5092347;28;20692;-61
2022/05/25 09:02:27;;;;;;;0.40;0.40;;;;;;;;;;5095949;28;20717;-63
2022/05/25 09:05:19;;;;;;;0.93;0.60;;;;;;;;;;5096938;28;20443;-61
2022/05/25 09:08:20;;;;;;;0.60;0.50;;;;;;;;;;5098711;28;20257;-61
2022/05/25 09:11:12;;;;;;;0.40;0.40;;;;;;;;;;5089087;28;20209;-61
2022/05/25 09:14:03;;;;;;;0.57;0.50;;;;;;;;;;5099348;28;20211;-61
2022/05/25 09:16:53;;;;;;;0.90;0.50;;;;;;;;;;5095588;28;20208;-61
2022/05/25 09:19:45;;;;;;;0.47;0.47;;;;;;;;;;5098699;28;20375;-61
2022/05/25 09:22:32;;;;;;;0.30;0.30;;;;;;;;;;5093171;28;20228;-62
2022/05/25 09:25:21;;;;;;;0.50;0.50;;;;;;;;;;5097948;28;20209;-62
2022/05/25 09:28:15;;;;;;;0.97;0.63;;;;;;;;;;5096949;28;20201;-62
2022/05/25 09:31:03;;;;;;;1.30;0.50;;;;;;;;;;5100246;28;20346;-60
2022/05/25 09:33:56;;;;;;;0.50;0.50;;;;;;;;;;5095333;28;20202;-62
2022/05/25 09:36:47;;;;;;;1.40;0.40;;;;;;;;;;5100681;28;20209;-61
2022/05/25 09:39:39;;;;;;;0.50;0.40;;;;;;;;;;5099024;28;20217;-62
2022/05/25 09:42:33;;;;;;;0.50;0.50;;;;;;;;;;5100935;28;20323;-63
2022/05/25 09:45:21;;;;;;;0.50;0.50;;;;;;;;;;5101150;28;20209;-62
2022/05/25 09:48:17;;;;;;;0.53;0.53;;;;;;;;;;5098812;28;20320;-61
2022/05/25 09:51:14;;;;;;;0.57;0.50;;;;;;;;;;5100063;28;20206;-61
2022/05/25 09:54:06;;;;;;;0.50;0.50;;;;;;;;;;5099684;28;20221;-61
2022/05/25 09:56:56;;;;;;;0.63;0.53;;;;;;;;;;5100019;28;20206;-62
2022/05/25 09:59:50;;;;;;;0.63;0.50;;;;;;;;;;5098415;28;20662;-61
2022/05/25 10:02:42;;;;;;;0.67;0.60;;;;;;;;;;5097241;28;20334;-61
2022/05/25 10:05:34;;;;;;;0.63;0.63;;;;;;;;;;5094552;28;20754;-62
2022/05/25 10:08:30;;;;;;;1.67;1.30;;;;;;;;;;5097091;28;20225;-62
2022/05/25 10:11:32;;;;;;;0.90;0.90;;;;;;;;;;5098349;28;20274;-62
2022/05/25 10:14:31;;;;;;;0.90;0.90;;;;;;;;;;5096074;28;20721;-65
2022/05/25 10:17:32;;;;;;;1.00;1.00;;;;;;;;;;5094524;28;20251;-62
2022/05/25 10:20:23;;;;;;;1.60;1.10;;;;;;;;;;5097706;28;20306;-62
2022/05/25 10:23:13;;;;;;;1.13;1.03;;;;;;;;;;5098041;28;20210;-62
2022/05/25 10:26:12;;;;;;;1.00;1.00;;;;;;;;;;5094479;28;20262;-61
2022/05/25 10:29:05;;;;;;;1.27;1.17;;;;;;;;;;5091171;28;20259;-71
2022/05/25 10:38:02;;;;;;;1.57;0.90;;;;;;;;;;5097692;28;20268;-62
2022/05/25 10:40:49;;;;;;;0.90;0.90;;;;;;;;;;5095778;28;20412;-62
2022/05/25 10:43:38;;;;;;;1.23;1.13;;;;;;;;;;5094255;28;20685;-63
2022/05/25 10:46:26;;;;;;;1.10;1.00;;;;;;;;;;5089790;28;20752;-62
2022/05/25 10:49:19;;;;;;;1.00;0.90;;;;;;;;;;5088073;28;20294;-62
2022/05/25 10:52:21;;;;;;;1.03;1.00;;;;;;;;;;5080127;28;20670;-61
2022/05/25 10:55:08;;;;;;;1.50;1.23;;;;;;;;;;5097902;28;20194;-61
2022/05/25 10:58:19;;;;;;;1.27;0.90;;;;;;;;;;5090904;28;20239;-62
2022/05/25 11:01:18;;;;;;;0.90;0.70;;;;;;;;;;5085797;28;20293;-62
2022/05/25 11:04:32;;;;;;;1.27;1.00;;;;;;;;;;5094973;28;20243;-62
2022/05/25 11:07:30;;;;;;;1.10;0.97;;;;;;;;;;5093189;28;20321;-62
2022/05/25 11:10:32;;;;;;;0.97;0.83;;;;;;;;;;5096135;28;20243;-62
2022/05/25 11:13:33;;;;;;;0.97;0.83;;;;;;;;;;5095319;28;20299;-62
2022/05/25 11:16:29;;;;;;;1.37;1.07;;;;;;;;;;5088752;28;20205;-62
2022/05/25 11:19:46;;;;;;;0.73;0.73;;;;;;;;;;5091665;28;20209;-62
2022/05/25 11:22:41;;;;;;;1.43;1.03;;;;;;;;;;5090760;28;20311;-62
2022/05/25 11:25:37;;;;;;;1.13;0.90;;;;;;;;;;5090421;28;20260;-62
2022/05/25 11:28:35;;;;;;;0.83;0.83;;;;;;;;;;5090537;28;20230;-61
2022/05/25 11:31:31;;;;;;;0.70;0.70;;;;;;;;;;5090940;28;20295;-62
2022/05/25 11:34:29;;;;;;;0.67;0.67;;;;;;;;;;5089086;28;20246;-62
2022/05/25 11:37:27;;;;;;;0.73;0.70;;;;;;;;;;5087653;28;20279;-62
2022/05/25 11:40:24;;;;;;;1.10;0.70;;;;;;;;;;5094521;28;20229;-62
2022/05/25 11:43:41;;;;;;;1.50;0.87;;;;;;;;;;5093700;28;20279;-61
2022/05/25 11:46:40;;;;;;;0.77;0.70;;;;;;;;;;5091883;28;20333;-63
2022/05/25 11:49:41;;;;;;;1.20;0.67;;;;;;;;;;5093877;28;20207;-62
2022/05/25 11:52:53;;;;;;;1.43;0.50;;;;;;;;;;5099690;28;20197;-62
2022/05/25 11:55:48;;;;;;;0.87;0.80;;;;;;;;;;5085195;28;20212;-62
2022/05/25 11:58:45;;;;;;;0.87;0.83;;;;;;;;;;5085099;28;20281;-62
2022/05/25 12:01:38;;;;;;;1.33;1.10;;;;;;;;;;5086496;28;20289;-62
2022/05/25 12:04:44;;;;;;;0.80;0.73;;;;;;;;;;5082571;28;20285;-61
2022/05/25 12:07:48;;;;;;;1.60;1.00;;;;;;;;;;5084650;28;20660;-62
2022/05/25 12:10:38;;;;;;;1.10;0.90;;;;;;;;;;5090776;28;20262;-62
2022/05/25 12:13:35;;;;;;;1.80;1.00;;;;;;;;;;5084533;28;20299;-62
2022/05/25 12:16:26;;;;;;;0.80;0.80;;;;;;;;;;5094868;28;20205;-62
2022/05/25 12:19:18;;;;;;;1.20;1.00;;;;;;;;;;5093776;28;20238;-64
2022/05/25 12:22:09;;;;;;;0.90;0.90;;;;;;;;;;5089477;28;20268;-62
2022/05/25 12:24:58;;;;;;;0.60;0.60;;;;;;;;;;5091838;28;20318;-63
2022/05/25 12:27:49;;;;;;;0.90;0.80;;;;;;;;;;5093306;28;20323;-62
2022/05/25 12:30:41;;;;;;;0.90;0.70;;;;;;;;;;5078267;28;20637;-62
2022/05/25 12:33:29;;;;;;;0.70;0.70;;;;;;;;;;5082534;28;20217;-62
2022/05/25 12:36:16;;;;;;;0.60;0.60;;;;;;;;;;5097391;28;20682;-62
2022/05/25 12:39:03;;;;;;;0.93;0.73;;;;;;;;;;5086404;28;20262;-62
2022/05/25 12:41:50;;;;;;;0.67;0.67;;;;;;;;;;5090994;28;20279;-61
2022/05/25 12:51:32;;;;;;;1.40;1.30;;;;;;;;;;5091856;28;20199;-62
2022/05/25 12:54:21;;;;;;;0.93;0.93;;;;;;;;;;5095391;28;20722;-62
2022/05/25 12:57:23;;;;;;;1.07;0.97;;;;;;;;;;5090564;28;20309;-62
2022/05/25 13:00:15;;;;;;;1.80;1.07;;;;;;;;;;5092873;28;20296;-62
2022/05/25 13:03:23;;;;;;;1.70;1.23;;;;;;;;;;5094185;28;20308;-62
2022/05/25 13:06:11;;;;;;;1.43;1.10;;;;;;;;;;5057880;28;20306;-62
2022/05/25 13:09:03;;;;;;;1.20;0.83;;;;;;;;;;5082986;28;20306;-62
2022/05/25 13:11:51;;;;;;;1.00;0.90;;;;;;;;;;5095355;28;20292;-63
2022/05/25 13:14:56;;;;;;;2.67;0.80;;;;;;;;;;5088379;28;20825;-61
2022/05/25 13:17:46;;;;;;;1.33;0.80;;;;;;;;;;5096867;28;20211;-61
2022/05/25 13:21:00;;;;;;;0.97;0.70;;;;;;;;;;5091387;28;20561;-62
2022/05/25 13:24:28;;;;;;;1.03;0.80;;;;;;;;;;5087767;28;20673;-63
2022/05/25 13:27:53;;;;;;;0.87;0.83;;;;;;;;;;5038742;28;20248;-62
2022/05/25 13:30:53;;;;;;;1.10;0.80;;;;;;;;;;5093790;28;20212;-62
2022/05/25 13:33:44;;;;;;;1.10;1.00;;;;;;;;;;5084816;28;20290;-62
2022/05/25 13:36:32;;;;;;;1.80;1.07;;;;;;;;;;5094512;28;20210;-62
2022/05/25 13:39:22;;;;;;;0.83;0.83;;;;;;;;;;5089381;28;20286;-62
2022/05/25 13:42:12;;;;;;;0.93;0.60;;;;;;;;;;5093173;28;20245;-62
2022/05/25 13:45:05;;;;;;;0.80;0.80;;;;;;;;;;5092026;28;20680;-62
2022/05/25 13:47:54;;;;;;;1.10;0.90;;;;;;;;;;5091722;28;20298;-62
2022/05/25 13:50:43;;;;;;;1.20;0.90;;;;;;;;;;5092060;28;20215;-62
2022/05/25 13:53:34;;;;;;;0.90;0.70;;;;;;;;;;5091126;28;20402;-62
2022/05/25 13:56:26;;;;;;;1.00;0.63;;;;;;;;;;5095059;28;20268;-62
2022/05/25 13:59:14;;;;;;;0.93;0.83;;;;;;;;;;5097109;28;20578;-69
2022/05/25 14:02:14;;;;;;;0.77;0.77;;;;;;;;;;5100227;28;20203;-62
2022/05/25 14:05:04;;;;;;;2.43;0.80;;;;;;;;;;5104620;28;20282;-62
2022/05/25 14:07:52;;;;;;;0.80;0.80;;;;;;;;;;5099258;28;20712;-62
2022/05/25 14:10:55;;;;;;;0.77;0.77;;;;;;;;;;5100723;28;20661;-61
2022/05/25 14:13:42;;;;;;;2.07;0.77;;;;;;;;;;5079851;28;20688;-62
2022/05/25 14:16:31;;;;;;;0.70;0.70;;;;;;;;;;5082651;28;20292;-62
2022/05/25 14:19:24;;;;;;;0.70;0.70;;;;;;;;;;5085853;28;20629;-62
2022/05/25 14:22:11;;;;;;;0.90;0.90;;;;;;;;;;5089251;28;20253;-62
2022/05/25 14:25:10;;;;;;;1.27;0.77;;;;;;;;;;5090418;28;20319;-63
2022/05/25 14:27:58;;;;;;;1.03;0.80;;;;;;;;;;5086318;28;20367;-62
2022/05/25 14:30:45;;;;;;;0.73;0.70;;;;;;;;;;5094131;28;20292;-62
2022/05/25 14:33:32;;;;;;;0.40;0.40;;;;;;;;;;5094231;28;20209;-62
2022/05/25 14:36:22;;;;;;;1.70;0.70;;;;;;;;;;5087982;28;20291;-62
2022/05/25 14:39:14;;;;;;;0.83;0.77;;;;;;;;;;5095636;28;20198;-61
2022/05/25 14:42:08;;;;;;;0.53;0.43;;;;;;;;;;5092729;28;20684;-64
2022/05/25 14:44:58;;;;;;;0.70;0.63;;;;;;;;;;5091985;28;20202;-63
2022/05/25 14:47:47;;;;;;;1.57;0.73;;;;;;;;;;5084918;28;20264;-62
2022/05/25 14:50:36;;;;;;;1.37;0.60;;;;;;;;;;5084141;28;20213;-63
2022/05/25 14:53:33;;;;;;;0.50;0.50;;;;;;;;;;5084913;28;20264;-63
2022/05/25 14:56:25;;;;;;;2.30;0.80;;;;;;;;;;5089210;28;20220;-63
2022/05/25 14:59:13;;;;;;;1.00;0.60;;;;;;;;;;5086129;28;20710;-63
2022/05/25 15:02:02;;;;;;;0.60;0.60;;;;;;;;;;5091792;28;20320;-63
2022/05/25 15:04:49;;;;;;;0.80;0.80;;;;;;;;;;5089358;28;20243;-67
2022/05/25 15:07:36;;;;;;;1.10;1.00;;;;;;;;;;5089994;28;20297;-63
2022/05/25 15:10:29;;;;;;;1.63;0.93;;;;;;;;;;5089924;28;20228;-63
2022/05/25 15:18:29;;;;;;;1.80;1.03;;;;;;;;;;5093564;28;20225;-63
2022/05/25 15:19:44;;;;;;;1.30;0.90;;;;;;;;;;5091162;28;20293;-64
2022/05/25 15:22:36;;;;;;;1.20;0.90;;;;;;;;;;5088209;28;20212;-62
2022/05/25 15:25:30;;;;;;;1.93;0.60;;;;;;;;;;5083086;28;20336;-63
2022/05/25 15:28:30;;;;;;;1.00;0.90;;;;;;;;;;5080608;28;20233;-63
2022/05/25 15:31:18;;;;;;;0.97;0.97;;;;;;;;;;5090469;28;20208;-62
2022/05/25 15:34:06;;;;;;;1.53;1.10;;;;;;;;;;5087289;28;20281;-62
2022/05/25 15:36:54;;;;;;;2.73;1.27;;;;;;;;;;5091054;28;20210;-63
2022/05/25 15:39:41;;;;;;;1.20;1.10;;;;;;;;;;5089320;28;20245;-62
2022/05/25 15:42:28;;;;;;;1.27;1.17;;;;;;;;;;5089299;28;20302;-67
2022/05/25 15:45:15;;;;;;;2.33;1.10;;;;;;;;;;5098057;28;20289;-62
2022/05/25 15:48:04;;;;;;;1.00;1.00;;;;;;;;;;5095166;28;20589;-62
2022/05/25 15:50:52;;;;;;;1.03;1.03;;;;;;;;;;5089089;28;20234;-63
2022/05/25 15:53:41;;;;;;;0.90;0.90;;;;;;;;;;5097622;28;20227;-62
2022/05/25 15:56:28;;;;;;;1.13;1.00;;;;;;;;;;5083324;28;20259;-62
2022/05/25 15:59:17;;;;;;;0.90;0.90;;;;;;;;;;5087548;28;20278;-61
2022/05/25 16:02:07;;;;;;;1.13;0.83;;;;;;;;;;5076707;28;20218;-61
2022/05/25 16:04:54;;;;;;;0.60;0.60;;;;;;;;;;5085346;28;20550;-62
2022/05/25 16:10:48;;;;;;;0.97;0.97;;;;;;;;;;5088938;28;20947;-62
2022/05/25 16:13:35;;;;;;;0.63;0.63;;;;;;;;;;5093674;28;20718;-62
2022/05/25 16:16:21;;;;;;;0.80;0.80;;;;;;;;;;5093372;28;20611;-62
2022/05/25 16:19:10;;;;;;;1.70;0.80;;;;;;;;;;5090291;28;20295;-62
2022/05/25 16:21:57;;;;;;;1.17;1.07;;;;;;;;;;5085996;28;20194;-62
2022/05/25 16:24:45;;;;;;;0.70;0.70;;;;;;;;;;5094373;28;20670;-62
2022/05/25 16:27:33;;;;;;;0.87;0.87;;;;;;;;;;5095658;28;20339;-62
2022/05/25 16:30:21;;;;;;;0.73;0.73;;;;;;;;;;5082327;28;20247;-62
2022/05/25 16:33:08;;;;;;;0.80;0.80;;;;;;;;;;5084568;28;20199;-62
2022/05/25 16:35:55;;;;;;;1.00;1.00;;;;;;;;;;5083109;28;20222;-62
2022/05/25 16:38:43;;;;;;;1.33;1.00;;;;;;;;;;5081859;28;20203;-63
2022/05/25 16:41:34;;;;;;;0.80;0.80;;;;;;;;;;5092720;28;20214;-62
2022/05/25 16:44:22;;;;;;;0.83;0.83;;;;;;;;;;5091810;28;20321;-61
2022/05/25 16:47:10;;;;;;;0.87;0.87;;;;;;;;;;5096081;28;20238;-62
2022/05/25 16:49:57;;;;;;;0.77;0.77;;;;;;;;;;5096267;28;20206;-62
2022/05/25 16:52:44;;;;;;;1.37;0.70;;;;;;;;;;5098407;28;20233;-62
2022/05/25 16:55:32;;;;;;;0.70;0.70;;;;;;;;;;5093016;28;20243;-62
2022/05/25 16:58:19;;;;;;;0.70;0.70;;;;;;;;;;5090414;28;20256;-62
2022/05/25 17:01:12;;;;;;;0.77;0.77;;;;;;;;;;5095788;28;20246;-65
2022/05/25 17:03:59;;;;;;;0.60;0.60;;;;;;;;;;5089470;28;20220;-63
2022/05/25 17:06:46;;;;;;;0.70;0.70;;;;;;;;;;5088763;28;20734;-62
2022/05/25 17:09:33;;;;;;;0.87;0.60;;;;;;;;;;5081472;28;20282;-62
2022/05/25 17:12:19;;;;;;;0.63;0.63;;;;;;;;;;5086771;28;20233;-63
2022/05/25 17:15:07;;;;;;;0.60;0.60;;;;;;;;;;5096649;28;20243;-62
2022/05/25 17:17:57;;;;;;;0.77;0.60;;;;;;;;;;5089070;28;20206;-62
2022/05/25 17:20:44;;;;;;;0.57;0.57;;;;;;;;;;5091399;28;20686;-62
2022/05/25 17:23:31;;;;;;;1.00;0.67;;;;;;;;;;5092744;28;20205;-62
2022/05/25 17:26:18;;;;;;;1.20;0.57;;;;;;;;;;5094612;28;20343;-73
2022/05/25 17:29:06;;;;;;;1.37;0.60;;;;;;;;;;5091572;28;20230;-62
2022/05/25 17:31:53;;;;;;;0.47;0.47;;;;;;;;;;5091572;28;20660;-62
2022/05/25 17:34:41;;;;;;;0.67;0.43;;;;;;;;;;5093763;28;20285;-62